Palmer Park, Maryland
Current Conditions -  °F | °C
As of 9:15 AM on Saturday 22 Nov 2014 (Local Time) from KCGS Reporting Station
Clear Clear  
Wind Chill: -3°   Ceiling: Unl
Heat Index:   Visibility: 10mi
Dew Point: -7°   Wind: 5mph
Humidity: 60%   Direction: 190°S
Pressure: 30.51"   Gusts: NA
Location:  38.9183°N, 76.8721°W
Report Text: KCGS 221415Z AUTO 19004KT 10SM CLR 00/M07 A3051 RMK AO1
Loading
Personal Weather Stations






























Interactive Weather Map New forecast layout! Learn more

10-Day Weather Forecast

Advertisements
Track Severe Weather on mobile